Spokane International Airport Spokane US
ICAO: KGEG
IATA: GEG
Category: Large
Scheduled Services: Yes

Elevation: 2376 ft
TransAlt. 18000 ft.

Airport Communications:
APP/DEP:123.75
ATIS:124.325
CLNC DEL:127.55
GND:121.9
ARNG:38.75
SEATTLE RDO:122.2
TWR:118.3
UNICOM:122.95

KGEG Zoom In..

If you have problems with the map follow the link
https://www.worldairports.se/pages/airport.php?
ICAO=KGEG

Runways:

(A) RW 03 length 11002 ft width 150 ft
ILS 111.10 / hdg 27

(B) RW 07 length 8199 ft width 150 ft
---- / hdg 72

(C) RW 21 length 11002 ft width 150 ft
ILS 111.10 / hdg 207

(D) RW 25 length 8199 ft width 150 ft
---- / hdg 252

Location; KGEG
Day. 19 / Time. 17.53 Zulu
* Altimeter: 30.41
* Temperature: 4/° c. 39.2°f.
* Wind from: 050° Speed 06 kn.
Dewpoint: 07° c.
Visibility: 5 Statute Miles.
Clouds: Few 200 ft.
Clouds: Broken 5500 ft.
Conditions: Mist.

KGEG 191753Z 05006KT 5SM BR FEW002 BKN055 00/M01 A3041 RMK AO2 SLP318 4/007 933012 60000 I6000 T00001011 10000 21006 53001


Wind From 050°
Speed 06 kn.

 
 
jpsmedia worldairports.se 2020   terms of use